sensor_id;sensor_type;location;lat;lon;timestamp;temperature;humidity
39677;DHT22;27789;50.840;4.386;2023-04-09T00:01:26;10.20;99.90
39677;DHT22;27789;50.840;4.386;2023-04-09T00:03:51;10.20;99.90
39677;DHT22;27789;50.840;4.386;2023-04-09T00:06:17;10.10;99.90
39677;DHT22;27789;50.840;4.386;2023-04-09T00:08:42;10.20;99.90
39677;DHT22;27789;50.840;4.386;2023-04-09T00:11:08;10.10;99.90
39677;DHT22;27789;50.840;4.386;2023-04-09T00:13:33;10.00;99.90
39677;DHT22;27789;50.840;4.386;2023-04-09T00:15:59;10.60;99.90
39677;DHT22;27789;50.840;4.386;2023-04-09T00:18:25;9.90;99.90
39677;DHT22;27789;50.840;4.386;2023-04-09T00:20:50;9.90;99.90
39677;DHT22;27789;50.840;4.386;2023-04-09T00:23:16;9.90;99.90
39677;DHT22;27789;50.840;4.386;2023-04-09T00:25:41;9.90;99.90
39677;DHT22;27789;50.840;4.386;2023-04-09T00:28:07;9.90;99.90
39677;DHT22;27789;50.840;4.386;2023-04-09T00:30:32;9.90;99.90
39677;DHT22;27789;50.840;4.386;2023-04-09T00:32:58;9.90;99.90
39677;DHT22;27789;50.840;4.386;2023-04-09T00:35:23;9.80;99.90
39677;DHT22;27789;50.840;4.386;2023-04-09T00:37:49;9.80;99.90
39677;DHT22;27789;50.840;4.386;2023-04-09T00:40:15;9.80;99.90
39677;DHT22;27789;50.840;4.386;2023-04-09T00:42:40;9.90;99.90
39677;DHT22;27789;50.840;4.386;2023-04-09T00:45:06;9.80;99.90
39677;DHT22;27789;50.840;4.386;2023-04-09T00:47:32;9.80;99.90
39677;DHT22;27789;50.840;4.386;2023-04-09T00:49:58;9.80;99.90
39677;DHT22;27789;50.840;4.386;2023-04-09T00:52:24;9.80;99.90
39677;DHT22;27789;50.840;4.386;2023-04-09T00:54:51;9.70;99.90
39677;DHT22;27789;50.840;4.386;2023-04-09T00:57:17;9.80;99.90
39677;DHT22;27789;50.840;4.386;2023-04-09T00:59:42;9.70;99.90
39677;DHT22;27789;50.840;4.386;2023-04-09T01:02:08;9.70;99.90
39677;DHT22;27789;50.840;4.386;2023-04-09T01:04:34;9.70;99.90
39677;DHT22;27789;50.840;4.386;2023-04-09T01:09:38;9.70;99.90
39677;DHT22;27789;50.840;4.386;2023-04-09T01:14:36;9.60;99.90
39677;DHT22;27789;50.840;4.386;2023-04-09T01:17:04;9.60;99.90
39677;DHT22;27789;50.840;4.386;2023-04-09T01:22:05;9.50;99.90
39677;DHT22;27789;50.840;4.386;2023-04-09T01:27:06;9.50;99.90
39677;DHT22;27789;50.840;4.386;2023-04-09T01:29:33;9.50;99.90
39677;DHT22;27789;50.840;4.386;2023-04-09T01:32:01;9.50;99.90
39677;DHT22;27789;50.840;4.386;2023-04-09T01:34:27;9.50;99.90
39677;DHT22;27789;50.840;4.386;2023-04-09T01:36:54;9.50;99.90
39677;DHT22;27789;50.840;4.386;2023-04-09T01:39:21;9.50;99.90
39677;DHT22;27789;50.840;4.386;2023-04-09T01:41:47;9.50;99.90
39677;DHT22;27789;50.840;4.386;2023-04-09T01:44:13;9.50;99.90
39677;DHT22;27789;50.840;4.386;2023-04-09T01:46:38;9.50;99.90
39677;DHT22;27789;50.840;4.386;2023-04-09T01:49:04;9.40;99.90
39677;DHT22;27789;50.840;4.386;2023-04-09T01:51:31;9.40;99.90
39677;DHT22;27789;50.840;4.386;2023-04-09T01:53:56;9.40;99.90
39677;DHT22;27789;50.840;4.386;2023-04-09T01:56:22;9.40;99.90
39677;DHT22;27789;50.840;4.386;2023-04-09T01:58:48;9.50;99.90
39677;DHT22;27789;50.840;4.386;2023-04-09T02:03:53;9.30;99.90
39677;DHT22;27789;50.840;4.386;2023-04-09T02:06:24;9.30;99.90
39677;DHT22;27789;50.840;4.386;2023-04-09T02:08:52;9.30;99.90
39677;DHT22;27789;50.840;4.386;2023-04-09T02:11:18;9.30;99.90
39677;DHT22;27789;50.840;4.386;2023-04-09T02:13:45;9.40;99.90
39677;DHT22;27789;50.840;4.386;2023-04-09T02:16:14;9.20;99.90
39677;DHT22;27789;50.840;4.386;2023-04-09T02:18:40;9.20;99.90
39677;DHT22;27789;50.840;4.386;2023-04-09T02:21:05;9.20;99.90
39677;DHT22;27789;50.840;4.386;2023-04-09T02:23:31;9.20;99.90
39677;DHT22;27789;50.840;4.386;2023-04-09T02:25:57;9.20;99.90
39677;DHT22;27789;50.840;4.386;2023-04-09T02:28:23;9.10;99.90
39677;DHT22;27789;50.840;4.386;2023-04-09T02:30:48;9.10;99.90
39677;DHT22;27789;50.840;4.386;2023-04-09T02:33:14;9.00;99.90
39677;DHT22;27789;50.840;4.386;2023-04-09T02:35:39;9.10;99.90
39677;DHT22;27789;50.840;4.386;2023-04-09T02:38:05;9.00;99.90
39677;DHT22;27789;50.840;4.386;2023-04-09T02:40:32;9.20;99.90
39677;DHT22;27789;50.840;4.386;2023-04-09T02:42:57;8.90;99.90
39677;DHT22;27789;50.840;4.386;2023-04-09T02:45:23;8.90;99.90
39677;DHT22;27789;50.840;4.386;2023-04-09T02:47:49;8.90;99.90
39677;DHT22;27789;50.840;4.386;2023-04-09T02:50:14;8.90;99.90
39677;DHT22;27789;50.840;4.386;2023-04-09T02:52:40;8.90;99.90
39677;DHT22;27789;50.840;4.386;2023-04-09T02:55:05;9.00;99.90
39677;DHT22;27789;50.840;4.386;2023-04-09T02:57:31;8.90;99.90
39677;DHT22;27789;50.840;4.386;2023-04-09T02:59:57;8.90;99.90
39677;DHT22;27789;50.840;4.386;2023-04-09T03:02:23;8.90;99.90
39677;DHT22;27789;50.840;4.386;2023-04-09T03:04:48;8.90;99.90
39677;DHT22;27789;50.840;4.386;2023-04-09T03:07:14;8.90;99.90
39677;DHT22;27789;50.840;4.386;2023-04-09T03:09:40;8.90;99.90
39677;DHT22;27789;50.840;4.386;2023-04-09T03:12:05;8.80;99.90
39677;DHT22;27789;50.840;4.386;2023-04-09T03:14:31;8.80;99.90
39677;DHT22;27789;50.840;4.386;2023-04-09T03:16:56;8.80;99.90
39677;DHT22;27789;50.840;4.386;2023-04-09T03:19:22;8.80;99.90
39677;DHT22;27789;50.840;4.386;2023-04-09T03:21:47;8.70;99.90
39677;DHT22;27789;50.840;4.386;2023-04-09T03:24:13;8.70;99.90
39677;DHT22;27789;50.840;4.386;2023-04-09T03:26:39;8.70;99.90
39677;DHT22;27789;50.840;4.386;2023-04-09T03:29:04;8.70;99.90
39677;DHT22;27789;50.840;4.386;2023-04-09T03:31:30;8.60;99.90
39677;DHT22;27789;50.840;4.386;2023-04-09T03:33:56;8.80;99.90
39677;DHT22;27789;50.840;4.386;2023-04-09T03:36:22;8.60;99.90
39677;DHT22;27789;50.840;4.386;2023-04-09T03:38:47;8.60;99.90
39677;DHT22;27789;50.840;4.386;2023-04-09T03:41:13;8.60;99.90
39677;DHT22;27789;50.840;4.386;2023-04-09T03:43:38;8.60;99.90
39677;DHT22;27789;50.840;4.386;2023-04-09T03:46:15;8.60;99.90
39677;DHT22;27789;50.840;4.386;2023-04-09T03:48:41;8.50;99.90
39677;DHT22;27789;50.840;4.386;2023-04-09T03:51:13;8.50;99.90
39677;DHT22;27789;50.840;4.386;2023-04-09T03:53:39;8.50;99.90
39677;DHT22;27789;50.840;4.386;2023-04-09T03:56:05;8.50;99.90
39677;DHT22;27789;50.840;4.386;2023-04-09T03:58:30;8.50;99.90
39677;DHT22;27789;50.840;4.386;2023-04-09T04:00:56;9.90;99.90
39677;DHT22;27789;50.840;4.386;2023-04-09T04:03:21;8.50;99.90
39677;DHT22;27789;50.840;4.386;2023-04-09T04:05:47;8.40;99.90
39677;DHT22;27789;50.840;4.386;2023-04-09T04:08:12;9.20;99.90
39677;DHT22;27789;50.840;4.386;2023-04-09T04:10:38;8.50;99.90
39677;DHT22;27789;50.840;4.386;2023-04-09T04:13:05;8.40;99.90
39677;DHT22;27789;50.840;4.386;2023-04-09T04:15:30;8.40;99.90
39677;DHT22;27789;50.840;4.386;2023-04-09T04:17:56;8.50;99.90
39677;DHT22;27789;50.840;4.386;2023-04-09T04:20:21;8.50;99.90
39677;DHT22;27789;50.840;4.386;2023-04-09T04:22:47;8.50;99.90
39677;DHT22;27789;50.840;4.386;2023-04-09T04:25:12;8.40;99.90
39677;DHT22;27789;50.840;4.386;2023-04-09T04:27:41;8.40;99.90
39677;DHT22;27789;50.840;4.386;2023-04-09T04:30:07;8.50;99.90
39677;DHT22;27789;50.840;4.386;2023-04-09T04:32:33;8.40;99.90
39677;DHT22;27789;50.840;4.386;2023-04-09T04:34:58;8.40;99.90
39677;DHT22;27789;50.840;4.386;2023-04-09T04:37:24;8.40;99.90
39677;DHT22;27789;50.840;4.386;2023-04-09T04:39:49;8.40;99.90
39677;DHT22;27789;50.840;4.386;2023-04-09T04:42:15;8.50;99.90
39677;DHT22;27789;50.840;4.386;2023-04-09T04:44:41;8.50;99.90
39677;DHT22;27789;50.840;4.386;2023-04-09T04:47:07;8.40;99.90
39677;DHT22;27789;50.840;4.386;2023-04-09T04:49:32;8.40;99.90
39677;DHT22;27789;50.840;4.386;2023-04-09T04:51:58;9.00;99.90
39677;DHT22;27789;50.840;4.386;2023-04-09T04:54:23;8.30;99.90
39677;DHT22;27789;50.840;4.386;2023-04-09T04:56:49;8.70;99.90
39677;DHT22;27789;50.840;4.386;2023-04-09T04:59:14;8.40;99.90
39677;DHT22;27789;50.840;4.386;2023-04-09T05:01:40;8.40;99.90
39677;DHT22;27789;50.840;4.386;2023-04-09T05:04:05;8.30;99.90
39677;DHT22;27789;50.840;4.386;2023-04-09T05:06:31;8.60;99.90
39677;DHT22;27789;50.840;4.386;2023-04-09T05:08:57;8.30;99.90
39677;DHT22;27789;50.840;4.386;2023-04-09T05:11:23;8.30;99.90
39677;DHT22;27789;50.840;4.386;2023-04-09T05:13:49;8.40;99.90
39677;DHT22;27789;50.840;4.386;2023-04-09T05:16:18;8.30;99.90
39677;DHT22;27789;50.840;4.386;2023-04-09T05:18:43;8.30;99.90
39677;DHT22;27789;50.840;4.386;2023-04-09T05:21:09;8.20;99.90
39677;DHT22;27789;50.840;4.386;2023-04-09T05:23:34;8.00;99.90
39677;DHT22;27789;50.840;4.386;2023-04-09T05:26:00;8.20;99.90
39677;DHT22;27789;50.840;4.386;2023-04-09T05:28:25;8.30;99.90
39677;DHT22;27789;50.840;4.386;2023-04-09T05:30:51;8.30;99.90
39677;DHT22;27789;50.840;4.386;2023-04-09T05:33:16;8.40;99.90
39677;DHT22;27789;50.840;4.386;2023-04-09T05:35:42;8.30;99.90
39677;DHT22;27789;50.840;4.386;2023-04-09T05:38:07;8.40;99.90
39677;DHT22;27789;50.840;4.386;2023-04-09T05:40:33;8.40;99.90
39677;DHT22;27789;50.840;4.386;2023-04-09T05:42:59;10.90;99.90
39677;DHT22;27789;50.840;4.386;2023-04-09T05:45:25;8.40;99.90
39677;DHT22;27789;50.840;4.386;2023-04-09T05:47:53;8.80;99.90
39677;DHT22;27789;50.840;4.386;2023-04-09T05:50:18;8.50;99.90
39677;DHT22;27789;50.840;4.386;2023-04-09T05:52:44;8.50;99.90
39677;DHT22;27789;50.840;4.386;2023-04-09T05:55:09;8.50;99.90
39677;DHT22;27789;50.840;4.386;2023-04-09T05:57:35;8.40;99.90
39677;DHT22;27789;50.840;4.386;2023-04-09T06:00:01;8.70;99.90
39677;DHT22;27789;50.840;4.386;2023-04-09T06:02:27;8.50;99.90
39677;DHT22;27789;50.840;4.386;2023-04-09T06:04:52;8.50;99.90
39677;DHT22;27789;50.840;4.386;2023-04-09T06:07:18;8.50;99.90
39677;DHT22;27789;50.840;4.386;2023-04-09T06:09:43;8.50;99.90
39677;DHT22;27789;50.840;4.386;2023-04-09T06:12:09;8.50;99.90
39677;DHT22;27789;50.840;4.386;2023-04-09T06:14:34;8.50;99.90
39677;DHT22;27789;50.840;4.386;2023-04-09T06:17:00;8.50;99.90
39677;DHT22;27789;50.840;4.386;2023-04-09T06:19:26;9.90;99.90
39677;DHT22;27789;50.840;4.386;2023-04-09T06:21:51;8.50;99.90
39677;DHT22;27789;50.840;4.386;2023-04-09T06:24:17;8.50;99.90
39677;DHT22;27789;50.840;4.386;2023-04-09T06:26:42;8.50;99.90
39677;DHT22;27789;50.840;4.386;2023-04-09T06:29:07;8.60;99.90
39677;DHT22;27789;50.840;4.386;2023-04-09T06:31:33;8.60;99.90
39677;DHT22;27789;50.840;4.386;2023-04-09T06:33:59;8.60;99.90
39677;DHT22;27789;50.840;4.386;2023-04-09T06:36:24;8.70;99.90
39677;DHT22;27789;50.840;4.386;2023-04-09T06:38:51;8.70;99.90
39677;DHT22;27789;50.840;4.386;2023-04-09T06:41:19;8.80;99.90
39677;DHT22;27789;50.840;4.386;2023-04-09T06:43:45;8.80;99.90
39677;DHT22;27789;50.840;4.386;2023-04-09T06:46:10;9.00;99.90
39677;DHT22;27789;50.840;4.386;2023-04-09T06:48:36;8.90;99.90
39677;DHT22;27789;50.840;4.386;2023-04-09T06:51:02;9.00;99.90
39677;DHT22;27789;50.840;4.386;2023-04-09T06:53:27;9.00;99.90
39677;DHT22;27789;50.840;4.386;2023-04-09T06:55:53;9.10;99.90
39677;DHT22;27789;50.840;4.386;2023-04-09T06:58:18;9.10;99.90
39677;DHT22;27789;50.840;4.386;2023-04-09T07:00:45;9.20;99.90
39677;DHT22;27789;50.840;4.386;2023-04-09T07:03:10;9.20;99.90
39677;DHT22;27789;50.840;4.386;2023-04-09T07:05:36;9.20;99.90
39677;DHT22;27789;50.840;4.386;2023-04-09T07:08:01;9.30;99.90
39677;DHT22;27789;50.840;4.386;2023-04-09T07:10:28;9.50;99.90
39677;DHT22;27789;50.840;4.386;2023-04-09T07:12:53;9.50;99.90
39677;DHT22;27789;50.840;4.386;2023-04-09T07:15:19;9.50;99.90
39677;DHT22;27789;50.840;4.386;2023-04-09T07:17:45;9.60;99.90
39677;DHT22;27789;50.840;4.386;2023-04-09T07:20:10;9.60;99.90
39677;DHT22;27789;50.840;4.386;2023-04-09T07:22:36;9.70;99.90
39677;DHT22;27789;50.840;4.386;2023-04-09T07:25:01;9.80;99.90
39677;DHT22;27789;50.840;4.386;2023-04-09T07:27:27;9.90;99.90
39677;DHT22;27789;50.840;4.386;2023-04-09T07:29:56;10.00;99.90
39677;DHT22;27789;50.840;4.386;2023-04-09T07:32:22;10.00;99.90
39677;DHT22;27789;50.840;4.386;2023-04-09T07:34:50;10.10;99.90
39677;DHT22;27789;50.840;4.386;2023-04-09T07:37:15;10.20;99.90
39677;DHT22;27789;50.840;4.386;2023-04-09T07:39:41;10.10;99.90
39677;DHT22;27789;50.840;4.386;2023-04-09T07:42:06;10.10;99.90
39677;DHT22;27789;50.840;4.386;2023-04-09T07:44:35;10.20;99.90
39677;DHT22;27789;50.840;4.386;2023-04-09T07:47:01;10.30;99.90
39677;DHT22;27789;50.840;4.386;2023-04-09T07:49:27;10.30;99.90
39677;DHT22;27789;50.840;4.386;2023-04-09T07:51:52;10.40;99.90
39677;DHT22;27789;50.840;4.386;2023-04-09T07:54:18;10.50;99.90
39677;DHT22;27789;50.840;4.386;2023-04-09T07:56:45;10.60;99.90
39677;DHT22;27789;50.840;4.386;2023-04-09T07:59:11;10.70;99.90
39677;DHT22;27789;50.840;4.386;2023-04-09T08:01:36;10.80;99.90
39677;DHT22;27789;50.840;4.386;2023-04-09T08:04:02;10.90;99.90
39677;DHT22;27789;50.840;4.386;2023-04-09T08:06:28;11.00;99.90
39677;DHT22;27789;50.840;4.386;2023-04-09T08:08:53;11.10;99.90
39677;DHT22;27789;50.840;4.386;2023-04-09T08:11:19;11.20;99.90
39677;DHT22;27789;50.840;4.386;2023-04-09T08:13:52;11.30;99.90
39677;DHT22;27789;50.840;4.386;2023-04-09T08:16:18;11.40;99.90
39677;DHT22;27789;50.840;4.386;2023-04-09T08:18:43;11.40;99.90
39677;DHT22;27789;50.840;4.386;2023-04-09T08:21:09;11.60;99.90
39677;DHT22;27789;50.840;4.386;2023-04-09T08:23:34;11.70;99.90
39677;DHT22;27789;50.840;4.386;2023-04-09T08:26:00;11.80;99.90
39677;DHT22;27789;50.840;4.386;2023-04-09T08:28:25;11.90;99.90
39677;DHT22;27789;50.840;4.386;2023-04-09T08:30:51;12.00;99.90
39677;DHT22;27789;50.840;4.386;2023-04-09T08:33:17;12.10;99.90
39677;DHT22;27789;50.840;4.386;2023-04-09T08:35:42;12.20;99.90
39677;DHT22;27789;50.840;4.386;2023-04-09T08:38:08;12.20;99.90
39677;DHT22;27789;50.840;4.386;2023-04-09T08:40:34;12.10;99.90
39677;DHT22;27789;50.840;4.386;2023-04-09T08:43:00;12.30;99.90
39677;DHT22;27789;50.840;4.386;2023-04-09T08:45:28;12.30;99.90
39677;DHT22;27789;50.840;4.386;2023-04-09T08:47:54;12.40;99.90
39677;DHT22;27789;50.840;4.386;2023-04-09T08:50:24;12.50;99.90
39677;DHT22;27789;50.840;4.386;2023-04-09T08:52:49;12.60;99.90
39677;DHT22;27789;50.840;4.386;2023-04-09T08:55:15;12.60;99.90
39677;DHT22;27789;50.840;4.386;2023-04-09T08:57:41;12.70;99.90
39677;DHT22;27789;50.840;4.386;2023-04-09T09:00:07;12.80;99.90
39677;DHT22;27789;50.840;4.386;2023-04-09T09:02:33;12.90;99.90
39677;DHT22;27789;50.840;4.386;2023-04-09T09:04:58;12.80;99.90
39677;DHT22;27789;50.840;4.386;2023-04-09T09:07:27;12.90;99.90
39677;DHT22;27789;50.840;4.386;2023-04-09T09:12:31;13.20;99.90
39677;DHT22;27789;50.840;4.386;2023-04-09T09:14:57;13.30;99.90
39677;DHT22;27789;50.840;4.386;2023-04-09T09:17:22;13.20;99.90
39677;DHT22;27789;50.840;4.386;2023-04-09T09:19:48;13.30;99.90
39677;DHT22;27789;50.840;4.386;2023-04-09T09:22:13;13.30;99.90
39677;DHT22;27789;50.840;4.386;2023-04-09T09:24:45;13.40;99.90
39677;DHT22;27789;50.840;4.386;2023-04-09T09:29:50;13.60;99.90
39677;DHT22;27789;50.840;4.386;2023-04-09T09:32:16;13.70;99.90
39677;DHT22;27789;50.840;4.386;2023-04-09T09:34:43;13.80;99.90
39677;DHT22;27789;50.840;4.386;2023-04-09T09:37:25;14.00;99.90
39677;DHT22;27789;50.840;4.386;2023-04-09T09:39:51;14.00;99.90
39677;DHT22;27789;50.840;4.386;2023-04-09T09:42:16;14.10;99.90
39677;DHT22;27789;50.840;4.386;2023-04-09T09:44:42;14.10;99.90
39677;DHT22;27789;50.840;4.386;2023-04-09T09:47:07;14.20;99.90
39677;DHT22;27789;50.840;4.386;2023-04-09T09:49:33;14.40;99.90
39677;DHT22;27789;50.840;4.386;2023-04-09T09:51:59;14.60;99.90
39677;DHT22;27789;50.840;4.386;2023-04-09T09:54:27;14.80;99.90
39677;DHT22;27789;50.840;4.386;2023-04-09T09:56:55;15.00;99.90
39677;DHT22;27789;50.840;4.386;2023-04-09T09:59:22;15.20;99.90
39677;DHT22;27789;50.840;4.386;2023-04-09T10:01:55;15.40;99.90
39677;DHT22;27789;50.840;4.386;2023-04-09T10:04:24;15.60;99.90
39677;DHT22;27789;50.840;4.386;2023-04-09T10:06:52;15.80;99.90
39677;DHT22;27789;50.840;4.386;2023-04-09T10:09:17;16.00;99.90
39677;DHT22;27789;50.840;4.386;2023-04-09T10:11:44;16.00;99.90
39677;DHT22;27789;50.840;4.386;2023-04-09T10:14:12;16.00;99.90
39677;DHT22;27789;50.840;4.386;2023-04-09T10:16:38;16.10;99.90
39677;DHT22;27789;50.840;4.386;2023-04-09T10:19:03;16.10;99.90
39677;DHT22;27789;50.840;4.386;2023-04-09T10:23:54;16.60;99.90
39677;DHT22;27789;50.840;4.386;2023-04-09T10:26:20;16.80;99.90
39677;DHT22;27789;50.840;4.386;2023-04-09T10:31:43;17.30;99.90
39677;DHT22;27789;50.840;4.386;2023-04-09T10:34:09;17.60;99.90
39677;DHT22;27789;50.840;4.386;2023-04-09T10:36:35;18.00;99.90
39677;DHT22;27789;50.840;4.386;2023-04-09T10:39:00;18.30;99.90
39677;DHT22;27789;50.840;4.386;2023-04-09T10:41:35;18.60;99.90
39677;DHT22;27789;50.840;4.386;2023-04-09T10:44:04;18.60;99.90
39677;DHT22;27789;50.840;4.386;2023-04-09T10:46:34;18.90;99.70
39677;DHT22;27789;50.840;4.386;2023-04-09T10:51:38;19.00;99.10
39677;DHT22;27789;50.840;4.386;2023-04-09T10:59:26;21.40;97.20
39677;DHT22;27789;50.840;4.386;2023-04-09T11:01:52;21.70;96.40
39677;DHT22;27789;50.840;4.386;2023-04-09T11:04:18;22.30;96.00
39677;DHT22;27789;50.840;4.386;2023-04-09T11:06:45;22.50;95.60
39677;DHT22;27789;50.840;4.386;2023-04-09T11:09:12;22.60;95.70
39677;DHT22;27789;50.840;4.386;2023-04-09T11:11:37;22.50;95.90
39677;DHT22;27789;50.840;4.386;2023-04-09T11:14:06;22.30;96.20
39677;DHT22;27789;50.840;4.386;2023-04-09T11:16:31;22.80;95.70
39677;DHT22;27789;50.840;4.386;2023-04-09T11:18:57;23.30;95.50
39677;DHT22;27789;50.840;4.386;2023-04-09T11:21:26;23.40;94.70
39677;DHT22;27789;50.840;4.386;2023-04-09T11:23:52;22.80;94.70
39677;DHT22;27789;50.840;4.386;2023-04-09T11:26:33;22.20;95.20
39677;DHT22;27789;50.840;4.386;2023-04-09T11:29:03;22.10;95.60
39677;DHT22;27789;50.840;4.386;2023-04-09T11:31:28;23.00;94.90
39677;DHT22;27789;50.840;4.386;2023-04-09T11:33:54;23.00;94.40
39677;DHT22;27789;50.840;4.386;2023-04-09T11:36:20;23.60;94.40
39677;DHT22;27789;50.840;4.386;2023-04-09T11:38:47;24.40;93.70
39677;DHT22;27789;50.840;4.386;2023-04-09T11:41:13;24.80;93.10
39677;DHT22;27789;50.840;4.386;2023-04-09T11:43:38;25.00;93.30
39677;DHT22;27789;50.840;4.386;2023-04-09T11:46:04;25.50;93.00
39677;DHT22;27789;50.840;4.386;2023-04-09T11:48:32;25.80;92.60
39677;DHT22;27789;50.840;4.386;2023-04-09T11:50:57;25.90;92.50
39677;DHT22;27789;50.840;4.386;2023-04-09T11:53:23;26.30;92.10
39677;DHT22;27789;50.840;4.386;2023-04-09T11:55:54;26.70;91.90
39677;DHT22;27789;50.840;4.386;2023-04-09T11:58:24;26.10;91.90
39677;DHT22;27789;50.840;4.386;2023-04-09T12:01:08;26.10;91.90
39677;DHT22;27789;50.840;4.386;2023-04-09T12:03:34;26.40;91.50
39677;DHT22;27789;50.840;4.386;2023-04-09T12:06:01;25.80;91.20
39677;DHT22;27789;50.840;4.386;2023-04-09T12:08:27;24.50;92.20
39677;DHT22;27789;50.840;4.386;2023-04-09T12:10:52;23.30;92.90
39677;DHT22;27789;50.840;4.386;2023-04-09T12:13:18;22.40;93.70
39677;DHT22;27789;50.840;4.386;2023-04-09T12:15:44;21.70;94.20
39677;DHT22;27789;50.840;4.386;2023-04-09T12:18:12;21.20;94.80
39677;DHT22;27789;50.840;4.386;2023-04-09T12:20:41;20.80;94.90
39677;DHT22;27789;50.840;4.386;2023-04-09T12:23:08;20.40;95.40
39677;DHT22;27789;50.840;4.386;2023-04-09T12:25:35;20.00;95.70
39677;DHT22;27789;50.840;4.386;2023-04-09T12:28:01;19.80;96.00
39677;DHT22;27789;50.840;4.386;2023-04-09T12:30:27;20.60;95.80
39677;DHT22;27789;50.840;4.386;2023-04-09T12:32:53;22.10;94.60
39677;DHT22;27789;50.840;4.386;2023-04-09T12:35:19;23.00;93.50
39677;DHT22;27789;50.840;4.386;2023-04-09T12:37:45;23.60;93.30
39677;DHT22;27789;50.840;4.386;2023-04-09T12:40:11;24.70;92.20
39677;DHT22;27789;50.840;4.386;2023-04-09T12:42:41;25.30;91.60
39677;DHT22;27789;50.840;4.386;2023-04-09T12:45:11;24.60;91.40
39677;DHT22;27789;50.840;4.386;2023-04-09T12:47:36;23.40;92.20
39677;DHT22;27789;50.840;4.386;2023-04-09T12:50:04;22.50;92.80
39677;DHT22;27789;50.840;4.386;2023-04-09T12:52:30;21.90;93.40
39677;DHT22;27789;50.840;4.386;2023-04-09T12:54:55;21.50;93.90
39677;DHT22;27789;50.840;4.386;2023-04-09T12:57:21;21.00;94.00
39677;DHT22;27789;50.840;4.386;2023-04-09T12:59:46;20.80;94.40
39677;DHT22;27789;50.840;4.386;2023-04-09T13:02:12;20.80;94.70
39677;DHT22;27789;50.840;4.386;2023-04-09T13:04:37;22.30;94.00
39677;DHT22;27789;50.840;4.386;2023-04-09T13:07:03;22.40;93.50
39677;DHT22;27789;50.840;4.386;2023-04-09T13:09:28;22.00;93.80
39677;DHT22;27789;50.840;4.386;2023-04-09T13:11:54;21.30;94.10
39677;DHT22;27789;50.840;4.386;2023-04-09T13:14:19;20.80;94.60
39677;DHT22;27789;50.840;4.386;2023-04-09T13:16:45;20.50;94.80
39677;DHT22;27789;50.840;4.386;2023-04-09T13:19:10;20.30;95.10
39677;DHT22;27789;50.840;4.386;2023-04-09T13:21:36;20.00;95.30
39677;DHT22;27789;50.840;4.386;2023-04-09T13:24:02;19.90;95.40
39677;DHT22;27789;50.840;4.386;2023-04-09T13:26:28;19.60;95.40
39677;DHT22;27789;50.840;4.386;2023-04-09T13:28:54;19.40;95.50
39677;DHT22;27789;50.840;4.386;2023-04-09T13:31:20;19.30;95.70
39677;DHT22;27789;50.840;4.386;2023-04-09T13:33:45;19.20;96.00
39677;DHT22;27789;50.840;4.386;2023-04-09T13:36:11;19.00;95.80
39677;DHT22;27789;50.840;4.386;2023-04-09T13:38:36;19.00;96.20
39677;DHT22;27789;50.840;4.386;2023-04-09T13:41:02;18.80;96.00
39677;DHT22;27789;50.840;4.386;2023-04-09T13:43:28;18.70;96.30
39677;DHT22;27789;50.840;4.386;2023-04-09T13:45:54;18.70;96.60
39677;DHT22;27789;50.840;4.386;2023-04-09T13:48:19;18.70;96.40
39677;DHT22;27789;50.840;4.386;2023-04-09T13:50:46;18.70;96.80
39677;DHT22;27789;50.840;4.386;2023-04-09T13:53:11;18.70;96.30
39677;DHT22;27789;50.840;4.386;2023-04-09T13:55:37;18.70;96.40
39677;DHT22;27789;50.840;4.386;2023-04-09T13:58:03;18.90;96.90
39677;DHT22;27789;50.840;4.386;2023-04-09T14:00:29;19.00;96.70
39677;DHT22;27789;50.840;4.386;2023-04-09T14:02:55;19.10;96.40
39677;DHT22;27789;50.840;4.386;2023-04-09T14:05:20;18.90;96.00
39677;DHT22;27789;50.840;4.386;2023-04-09T14:07:46;18.80;96.00
39677;DHT22;27789;50.840;4.386;2023-04-09T14:10:11;18.80;96.40
39677;DHT22;27789;50.840;4.386;2023-04-09T14:12:37;18.70;96.20
39677;DHT22;27789;50.840;4.386;2023-04-09T14:15:03;18.80;96.30
39677;DHT22;27789;50.840;4.386;2023-04-09T14:17:28;18.70;96.60
39677;DHT22;27789;50.840;4.386;2023-04-09T14:19:54;18.80;95.90
39677;DHT22;27789;50.840;4.386;2023-04-09T14:22:20;18.70;96.10
39677;DHT22;27789;50.840;4.386;2023-04-09T14:24:45;18.80;96.10
39677;DHT22;27789;50.840;4.386;2023-04-09T14:27:11;18.80;96.30
39677;DHT22;27789;50.840;4.386;2023-04-09T14:29:36;18.80;96.40
39677;DHT22;27789;50.840;4.386;2023-04-09T14:32:02;18.70;96.50
39677;DHT22;27789;50.840;4.386;2023-04-09T14:34:30;18.70;96.30
39677;DHT22;27789;50.840;4.386;2023-04-09T14:36:56;18.50;96.40
39677;DHT22;27789;50.840;4.386;2023-04-09T14:39:21;18.50;95.80
39677;DHT22;27789;50.840;4.386;2023-04-09T14:41:47;18.40;95.70
39677;DHT22;27789;50.840;4.386;2023-04-09T14:44:12;18.30;95.90
39677;DHT22;27789;50.840;4.386;2023-04-09T14:46:38;18.30;95.80
39677;DHT22;27789;50.840;4.386;2023-04-09T14:49:03;18.30;95.70
39677;DHT22;27789;50.840;4.386;2023-04-09T14:51:29;18.30;95.60
39677;DHT22;27789;50.840;4.386;2023-04-09T14:53:57;18.40;95.80
39677;DHT22;27789;50.840;4.386;2023-04-09T14:56:22;18.30;95.70
39677;DHT22;27789;50.840;4.386;2023-04-09T14:58:49;18.30;95.50
39677;DHT22;27789;50.840;4.386;2023-04-09T15:01:15;18.30;95.70
39677;DHT22;27789;50.840;4.386;2023-04-09T15:03:41;18.30;95.90
39677;DHT22;27789;50.840;4.386;2023-04-09T15:06:06;18.40;96.30
39677;DHT22;27789;50.840;4.386;2023-04-09T15:08:32;18.40;95.70
39677;DHT22;27789;50.840;4.386;2023-04-09T15:10:58;18.40;95.60
39677;DHT22;27789;50.840;4.386;2023-04-09T15:13:23;18.40;95.90
39677;DHT22;27789;50.840;4.386;2023-04-09T15:15:49;18.40;96.00
39677;DHT22;27789;50.840;4.386;2023-04-09T15:18:15;18.40;95.70
39677;DHT22;27789;50.840;4.386;2023-04-09T15:20:40;18.30;95.70
39677;DHT22;27789;50.840;4.386;2023-04-09T15:23:08;18.30;95.90
39677;DHT22;27789;50.840;4.386;2023-04-09T15:25:33;18.30;96.20
39677;DHT22;27789;50.840;4.386;2023-04-09T15:28:00;18.30;96.00
39677;DHT22;27789;50.840;4.386;2023-04-09T15:30:25;18.30;96.10
39677;DHT22;27789;50.840;4.386;2023-04-09T15:32:51;18.10;95.90
39677;DHT22;27789;50.840;4.386;2023-04-09T15:35:17;18.10;96.30
39677;DHT22;27789;50.840;4.386;2023-04-09T15:37:48;18.20;96.10
39677;DHT22;27789;50.840;4.386;2023-04-09T15:40:13;18.30;96.40
39677;DHT22;27789;50.840;4.386;2023-04-09T15:42:39;18.30;95.80
39677;DHT22;27789;50.840;4.386;2023-04-09T15:45:05;18.20;95.80
39677;DHT22;27789;50.840;4.386;2023-04-09T15:47:30;18.20;95.80
39677;DHT22;27789;50.840;4.386;2023-04-09T15:49:57;18.20;96.00
39677;DHT22;27789;50.840;4.386;2023-04-09T15:52:23;18.20;96.00
39677;DHT22;27789;50.840;4.386;2023-04-09T15:54:49;18.20;96.20
39677;DHT22;27789;50.840;4.386;2023-04-09T15:57:14;18.20;96.40
39677;DHT22;27789;50.840;4.386;2023-04-09T15:59:40;18.20;96.10
39677;DHT22;27789;50.840;4.386;2023-04-09T16:02:05;18.30;96.00